createdAt,value
2022-11-10T00:03:29.707Z,8.18
2022-11-10T00:08:49.930Z,8.24
2022-11-10T00:14:28.977Z,8.26
2022-11-10T00:19:49.745Z,8.35
2022-11-10T00:25:10.759Z,8.45
2022-11-10T00:30:30.961Z,8.42
2022-11-10T00:35:51.109Z,8.47
2022-11-10T00:41:11.751Z,8.49
2022-11-10T00:46:32.152Z,8.45
2022-11-10T00:51:52.448Z,8.38
2022-11-10T00:57:12.962Z,8.41
2022-11-10T01:02:43.256Z,8.42
2022-11-10T01:08:03.622Z,8.37
2022-11-10T01:13:23.957Z,8.40
2022-11-10T01:18:44.508Z,8.48
2022-11-10T01:24:04.888Z,8.45
2022-11-10T01:29:25.190Z,8.52
2022-11-10T01:34:45.709Z,8.48
2022-11-10T01:40:06.393Z,8.47
2022-11-10T01:45:36.781Z,8.50
2022-11-10T01:51:01.664Z,8.46
2022-11-10T01:56:24.265Z,8.54
2022-11-10T02:01:48.680Z,8.47
2022-11-10T02:07:11.015Z,8.47
2022-11-10T02:12:38.584Z,8.48
2022-11-10T02:17:59.118Z,8.46
2022-11-10T02:23:31.496Z,8.40
2022-11-10T02:28:53.301Z,8.29
2022-11-10T02:34:13.660Z,8.26
2022-11-10T02:39:33.747Z,8.19
2022-11-10T02:44:54.988Z,8.07
2022-11-10T02:50:15.646Z,8.01
2022-11-10T02:55:52.448Z,7.98
2022-11-10T03:01:17.383Z,7.93
2022-11-10T03:06:43.611Z,7.95
2022-11-10T03:12:06.333Z,7.90
2022-11-10T03:17:26.703Z,7.85
2022-11-10T03:22:47.301Z,7.86
2022-11-10T03:28:07.749Z,7.89
2022-11-10T03:33:28.198Z,7.83
2022-11-10T03:38:48.893Z,7.86
2022-11-10T03:44:09.684Z,7.84
2022-11-10T03:49:30.658Z,7.88
2022-11-10T03:54:51.127Z,7.90
2022-11-10T04:00:14.804Z,7.83
2022-11-10T04:05:53.488Z,7.79
2022-11-10T04:11:33.890Z,7.75
2022-11-10T04:16:54.942Z,7.76
2022-11-10T04:22:35.314Z,7.72
2022-11-10T04:27:56.210Z,7.73
2022-11-10T04:33:16.443Z,7.79
2022-11-10T04:38:37.371Z,7.79
2022-11-10T04:43:59.424Z,7.78
2022-11-10T04:49:19.692Z,7.84
2022-11-10T04:54:40.114Z,7.82
2022-11-10T05:00:00.749Z,7.89
2022-11-10T05:05:21.240Z,7.81
2022-11-10T05:10:41.551Z,7.93
2022-11-10T05:16:03.319Z,8.00
2022-11-10T05:21:23.705Z,7.93
2022-11-10T05:26:43.797Z,7.93
2022-11-10T05:32:04.229Z,7.95
2022-11-10T05:37:24.570Z,8.03
2022-11-10T05:42:52.819Z,8.00
2022-11-10T05:48:13.106Z,7.96
2022-11-10T05:53:35.992Z,8.00
2022-11-10T05:58:56.255Z,8.02
2022-11-10T06:04:16.873Z,8.09
2022-11-10T06:09:38.146Z,8.05
2022-11-10T06:14:58.982Z,8.11
2022-11-10T06:20:20.131Z,8.13
2022-11-10T06:25:41.737Z,8.18
2022-11-10T06:31:01.973Z,8.16
2022-11-10T06:36:22.675Z,8.25
2022-11-10T06:41:43.066Z,8.31
2022-11-10T06:47:03.255Z,8.31
2022-11-10T06:52:26.644Z,8.39
2022-11-10T06:57:46.986Z,8.50
2022-11-10T07:03:10.317Z,8.57
2022-11-10T07:08:30.826Z,8.60
2022-11-10T07:13:51.304Z,8.65
2022-11-10T07:19:11.650Z,8.68
2022-11-10T07:24:32.798Z,8.78
2022-11-10T07:29:53.335Z,8.85
2022-11-10T07:35:13.540Z,8.95
2022-11-10T07:40:33.777Z,9.06
2022-11-10T07:45:54.358Z,9.13
2022-11-10T07:51:15.100Z,9.30
2022-11-10T07:56:35.908Z,9.22
2022-11-10T08:01:56.114Z,9.26
2022-11-10T08:07:16.867Z,9.39
2022-11-10T08:12:37.371Z,9.53
2022-11-10T08:18:05.700Z,9.57
2022-11-10T08:23:26.183Z,9.71
2022-11-10T08:28:46.871Z,9.83
2022-11-10T08:34:07.086Z,9.92
2022-11-10T08:39:38.508Z,10.11
2022-11-10T08:44:59.951Z,10.15
2022-11-10T08:50:20.268Z,10.20
2022-11-10T08:55:41.434Z,10.33
2022-11-10T09:01:02.124Z,10.37
2022-11-10T09:06:22.107Z,10.51
2022-11-10T09:11:42.671Z,10.56
2022-11-10T09:17:03.283Z,10.64
2022-11-10T09:22:24.055Z,10.62
2022-11-10T09:27:44.478Z,10.64
2022-11-10T09:33:04.811Z,10.59
2022-11-10T09:38:25.344Z,10.75
2022-11-10T09:43:51.331Z,10.85
2022-11-10T09:49:24.187Z,11.04
2022-11-10T09:55:02.300Z,11.15
2022-11-10T10:00:23.207Z,11.32
2022-11-10T10:06:02.641Z,11.19
2022-11-10T10:11:36.739Z,11.39
2022-11-10T10:17:38.335Z,11.47
2022-11-10T10:23:46.752Z,11.27
2022-11-10T10:29:18.857Z,11.32
2022-11-10T10:34:39.605Z,11.54
2022-11-10T10:39:59.994Z,11.64
2022-11-10T10:45:29.264Z,11.65
2022-11-10T10:50:50.442Z,11.80
2022-11-10T10:56:19.202Z,11.94
2022-11-10T11:01:40.560Z,11.86
2022-11-10T11:07:19.380Z,11.94
2022-11-10T11:12:39.895Z,12.05
2022-11-10T11:18:05.405Z,12.16
2022-11-10T11:23:56.976Z,12.17
2022-11-10T11:29:42.605Z,12.34
2022-11-10T11:35:41.718Z,12.38
2022-11-10T11:41:15.449Z,12.40
2022-11-10T11:46:48.942Z,12.38
2022-11-10T11:52:21.764Z,12.56
2022-11-10T11:57:53.961Z,12.64
2022-11-10T12:03:32.147Z,12.66
2022-11-10T12:08:56.723Z,12.83
2022-11-10T12:14:46.301Z,12.72
2022-11-10T12:20:45.741Z,12.90
2022-11-10T12:26:12.108Z,13.00
2022-11-10T12:31:35.490Z,13.04
2022-11-10T12:36:57.726Z,13.00
2022-11-10T12:42:23.115Z,13.11
2022-11-10T12:47:46.175Z,13.21
2022-11-10T12:53:48.163Z,13.32
2022-11-10T12:59:20.749Z,13.40
2022-11-10T13:04:41.439Z,13.45
2022-11-10T13:21:52.400Z,13.46
2022-11-10T13:39:16.218Z,13.43
2022-11-10T14:34:47.553Z,12.88
2022-11-10T14:46:31.153Z,12.71
2022-11-10T14:52:02.527Z,12.57
2022-11-10T14:57:37.401Z,12.56
2022-11-10T15:02:58.872Z,12.40
2022-11-10T15:08:19.982Z,12.33
2022-11-10T15:13:41.036Z,12.31
2022-11-10T15:19:22.887Z,12.19
2022-11-10T15:24:45.550Z,12.09
2022-11-10T15:30:23.105Z,12.10
2022-11-10T15:35:43.228Z,11.97
2022-11-10T15:41:10.931Z,11.91
2022-11-10T15:46:31.935Z,11.82
2022-11-10T15:51:57.602Z,11.83
2022-11-10T15:57:19.263Z,11.73
2022-11-10T16:02:40.767Z,11.63
2022-11-10T16:08:00.954Z,11.63
2022-11-10T16:13:28.651Z,11.56
2022-11-10T16:18:49.159Z,11.49
2022-11-10T16:24:09.440Z,11.38
2022-11-10T16:29:31.696Z,11.34
2022-11-10T16:34:52.365Z,11.32
2022-11-10T16:40:17.744Z,11.24
2022-11-10T16:45:42.994Z,11.25
2022-11-10T16:51:10.061Z,11.22
2022-11-10T16:56:34.069Z,11.18
2022-11-10T17:01:55.217Z,11.17
2022-11-10T17:13:15.347Z,11.16
2022-11-10T17:29:55.844Z,11.15
2022-11-10T17:35:26.354Z,11.14
2022-11-10T17:40:47.145Z,11.08
2022-11-10T17:46:07.642Z,11.17
2022-11-10T17:51:28.293Z,11.13
2022-11-10T17:56:48.629Z,11.04
2022-11-10T18:02:11.473Z,11.02
2022-11-10T18:07:35.351Z,10.96
2022-11-10T18:12:55.794Z,10.86
2022-11-10T18:18:17.736Z,10.83
2022-11-10T18:23:39.565Z,10.79
2022-11-10T18:29:07.223Z,10.77
2022-11-10T18:34:28.145Z,10.67
2022-11-10T18:39:49.387Z,10.72
2022-11-10T18:45:11.250Z,10.68
2022-11-10T18:50:31.842Z,10.49
2022-11-10T18:55:58.538Z,10.48
2022-11-10T19:01:20.513Z,10.37
2022-11-10T19:06:44.104Z,10.32
2022-11-10T19:12:07.434Z,10.29
2022-11-10T19:17:30.351Z,10.12
2022-11-10T19:22:51.208Z,9.99
2022-11-10T19:28:11.688Z,9.93
2022-11-10T19:33:37.497Z,9.77
2022-11-10T19:38:57.976Z,9.72
2022-11-10T19:44:19.342Z,9.64
2022-11-10T19:49:40.113Z,9.49
2022-11-10T19:55:00.390Z,9.40
2022-11-10T20:00:21.041Z,9.33
2022-11-10T20:05:43.301Z,9.36
2022-11-10T20:11:10.581Z,9.38
2022-11-10T20:16:41.718Z,9.42
2022-11-10T20:22:01.858Z,9.38
2022-11-10T20:27:21.958Z,9.38
2022-11-10T20:32:50.467Z,9.50
2022-11-10T20:38:11.399Z,9.45
2022-11-10T20:43:36.625Z,9.43
2022-11-10T20:49:01.212Z,9.52
2022-11-10T20:54:27.679Z,9.47
2022-11-10T20:59:48.381Z,9.43
2022-11-10T21:05:13.883Z,9.43
2022-11-10T21:10:34.420Z,9.38
2022-11-10T21:15:57.816Z,9.26
2022-11-10T21:21:22.052Z,9.17
2022-11-10T21:26:55.810Z,9.05
2022-11-10T21:32:16.977Z,8.98
2022-11-10T21:37:38.901Z,8.88
2022-11-10T21:42:59.556Z,8.69
2022-11-10T21:48:19.608Z,8.57
2022-11-10T21:53:41.862Z,8.44
2022-11-10T21:59:02.641Z,8.36
2022-11-10T22:04:23.457Z,8.31
2022-11-10T22:10:02.742Z,8.23
2022-11-10T22:15:42.008Z,8.23
2022-11-10T22:21:04.031Z,8.10
2022-11-10T22:26:24.186Z,8.10
2022-11-10T22:31:44.658Z,8.06
2022-11-10T22:37:04.858Z,8.02
2022-11-10T22:42:43.550Z,7.95
2022-11-10T22:48:22.483Z,7.94
2022-11-10T22:53:43.426Z,7.88
2022-11-10T22:59:03.833Z,7.66
2022-11-10T23:04:23.865Z,7.56
2022-11-10T23:09:45.012Z,7.43
2022-11-10T23:15:05.850Z,7.45
2022-11-10T23:20:26.038Z,7.24
2022-11-10T23:25:55.622Z,7.12
2022-11-10T23:31:19.199Z,6.99
2022-11-10T23:42:26.898Z,6.89
2022-11-10T23:47:47.973Z,6.84
2022-11-10T23:53:08.372Z,6.82
2022-11-10T23:58:29.254Z,6.80
